createdAt,value
2023-02-23T00:01:55.351Z,73.90
2023-02-23T00:04:24.671Z,74.00
2023-02-23T00:06:54.035Z,74.00
2023-02-23T00:09:24.357Z,74.00
2023-02-23T00:11:55.222Z,74.10
2023-02-23T00:14:27.782Z,74.20
2023-02-23T00:16:55.923Z,74.20
2023-02-23T00:19:25.372Z,74.30
2023-02-23T00:21:54.046Z,74.30
2023-02-23T00:24:23.681Z,74.30
2023-02-23T00:26:53.969Z,74.30
2023-02-23T00:29:23.816Z,74.40
2023-02-23T00:31:53.221Z,74.50
2023-02-23T00:34:23.593Z,74.40
2023-02-23T00:36:54.783Z,74.50
2023-02-23T00:39:26.759Z,75.40
2023-02-23T00:41:56.996Z,74.50
2023-02-23T00:44:25.663Z,74.50
2023-02-23T00:46:54.323Z,74.70
2023-02-23T00:49:23.654Z,74.60
2023-02-23T00:51:52.223Z,74.70
2023-02-23T00:54:22.722Z,74.80
2023-02-23T00:56:51.473Z,74.90
2023-02-23T00:59:21.682Z,74.70
2023-02-23T01:01:50.144Z,74.80
2023-02-23T01:04:18.256Z,74.80
2023-02-23T01:06:46.903Z,74.80
2023-02-23T01:09:22.450Z,74.80
2023-02-23T01:11:50.664Z,74.80
2023-02-23T01:14:22.602Z,74.70
2023-02-23T01:16:50.734Z,74.70
2023-02-23T01:19:19.352Z,74.70
2023-02-23T01:21:47.995Z,74.70
2023-02-23T01:24:16.669Z,74.70
2023-02-23T01:26:47.610Z,74.70
2023-02-23T01:29:17.673Z,75.00
2023-02-23T01:31:48.719Z,76.00
2023-02-23T01:34:17.514Z,75.10
2023-02-23T01:36:45.923Z,75.20
2023-02-23T01:39:16.109Z,75.10
2023-02-23T01:41:44.757Z,75.10
2023-02-23T01:44:46.347Z,75.20
2023-02-23T01:47:17.700Z,75.50
2023-02-23T01:49:46.395Z,75.30
2023-02-23T01:52:18.638Z,75.30
2023-02-23T01:54:51.641Z,75.40
2023-02-23T01:57:25.327Z,75.50
2023-02-23T01:59:53.959Z,75.50
2023-02-23T02:02:33.342Z,75.50
2023-02-23T02:05:05.239Z,75.50
2023-02-23T02:07:36.265Z,75.60
2023-02-23T02:10:23.161Z,75.60
2023-02-23T02:12:56.423Z,75.60
2023-02-23T02:15:27.741Z,75.50
2023-02-23T02:18:09.700Z,75.50
2023-02-23T02:21:08.411Z,75.50
2023-02-23T02:24:11.713Z,75.60
2023-02-23T02:26:51.358Z,75.50
2023-02-23T02:29:48.834Z,75.50
2023-02-23T02:32:57.348Z,75.70
2023-02-23T02:36:07.953Z,75.80
2023-02-23T02:38:51.012Z,75.90
2023-02-23T02:41:27.610Z,75.80
2023-02-23T02:44:02.092Z,75.80
2023-02-23T02:46:36.561Z,75.80
2023-02-23T02:49:10.341Z,75.90
2023-02-23T02:51:46.314Z,76.00
2023-02-23T02:54:25.322Z,76.30
2023-02-23T02:56:57.870Z,76.40
2023-02-23T02:59:44.051Z,76.40
2023-02-23T03:02:35.038Z,76.40
2023-02-23T03:05:21.031Z,76.60
2023-02-23T03:08:13.606Z,76.70
2023-02-23T03:11:11.797Z,76.80
2023-02-23T03:14:07.668Z,76.90
2023-02-23T03:17:00.993Z,76.90
2023-02-23T03:19:50.952Z,77.10
2023-02-23T03:22:42.745Z,77.10
2023-02-23T03:25:33.580Z,77.20
2023-02-23T03:28:31.256Z,77.20
2023-02-23T03:31:24.509Z,77.20
2023-02-23T03:34:17.376Z,77.10
2023-02-23T03:37:09.577Z,77.20
2023-02-23T03:39:59.668Z,77.50
2023-02-23T03:42:51.469Z,77.70
2023-02-23T03:45:42.488Z,77.70
2023-02-23T03:48:31.103Z,77.70
2023-02-23T03:51:22.445Z,77.70
2023-02-23T03:54:12.875Z,77.80
2023-02-23T03:57:03.299Z,77.80
2023-02-23T03:59:53.257Z,77.90
2023-02-23T04:02:42.569Z,77.90
2023-02-23T04:05:35.529Z,77.90
2023-02-23T04:08:23.251Z,78.80
2023-02-23T04:11:13.882Z,77.90
2023-02-23T04:13:42.636Z,78.00
2023-02-23T04:16:11.138Z,78.10
2023-02-23T04:18:43.097Z,78.30
2023-02-23T04:21:11.290Z,78.40
2023-02-23T04:23:41.546Z,78.30
2023-02-23T04:26:10.665Z,78.60
2023-02-23T04:28:39.232Z,78.60
2023-02-23T04:31:07.336Z,78.70
2023-02-23T04:33:35.437Z,78.70
2023-02-23T04:36:05.811Z,78.70
2023-02-23T04:38:33.859Z,78.80
2023-02-23T04:41:02.455Z,79.00
2023-02-23T04:43:30.700Z,79.10
2023-02-23T04:45:58.864Z,79.20
2023-02-23T04:48:27.664Z,79.20
2023-02-23T04:50:56.150Z,79.40
2023-02-23T04:53:26.620Z,79.40
2023-02-23T04:55:54.744Z,79.40
2023-02-23T04:58:23.366Z,79.40
2023-02-23T05:00:51.450Z,79.20
2023-02-23T05:03:19.997Z,79.30
2023-02-23T05:05:48.563Z,79.30
2023-02-23T05:08:16.666Z,79.40
2023-02-23T05:10:47.942Z,79.40
2023-02-23T05:13:16.366Z,79.50
2023-02-23T05:15:44.929Z,79.40
2023-02-23T05:18:13.489Z,79.60
2023-02-23T05:20:45.284Z,79.50
2023-02-23T05:23:13.448Z,79.50
2023-02-23T05:25:42.060Z,79.50
2023-02-23T05:28:11.631Z,79.40
2023-02-23T05:30:40.196Z,79.50
2023-02-23T05:33:08.756Z,79.40
2023-02-23T05:35:36.855Z,79.40
2023-02-23T05:38:05.407Z,79.40
2023-02-23T05:40:34.793Z,79.50
2023-02-23T05:43:03.350Z,79.60
2023-02-23T05:45:33.739Z,79.70
2023-02-23T05:48:01.815Z,79.70
2023-02-23T05:50:30.449Z,79.60
2023-02-23T05:52:58.525Z,79.60
2023-02-23T05:55:27.640Z,79.60
2023-02-23T05:57:55.760Z,79.60
2023-02-23T06:00:24.910Z,79.60
2023-02-23T06:02:54.691Z,79.60
2023-02-23T06:05:23.374Z,79.80
2023-02-23T06:07:51.583Z,79.80
2023-02-23T06:10:20.376Z,79.80
2023-02-23T06:12:48.452Z,79.80
2023-02-23T06:15:17.364Z,79.80
2023-02-23T06:17:45.901Z,80.00
2023-02-23T06:20:15.840Z,79.90
2023-02-23T06:22:44.667Z,80.10
2023-02-23T06:25:13.945Z,80.10
2023-02-23T06:27:42.526Z,80.10
2023-02-23T06:30:12.443Z,80.10
2023-02-23T06:32:40.818Z,80.20
2023-02-23T06:35:09.672Z,80.10
2023-02-23T06:37:39.644Z,80.10
2023-02-23T06:40:08.971Z,80.20
2023-02-23T06:42:37.603Z,80.30
2023-02-23T06:45:06.483Z,80.30
2023-02-23T06:47:35.138Z,80.40
2023-02-23T06:50:03.248Z,80.30
2023-02-23T06:52:31.847Z,80.40
2023-02-23T06:55:01.609Z,80.50
2023-02-23T06:57:29.692Z,80.50
2023-02-23T06:59:57.838Z,80.60
2023-02-23T07:02:25.946Z,80.70
2023-02-23T07:04:54.005Z,80.60
2023-02-23T07:07:22.303Z,80.60
2023-02-23T07:09:50.376Z,80.70
2023-02-23T07:12:19.927Z,80.70
2023-02-23T07:14:48.214Z,80.90
2023-02-23T07:17:18.349Z,80.80
2023-02-23T07:19:46.501Z,80.90
2023-02-23T07:22:14.637Z,80.70
2023-02-23T07:24:42.743Z,80.80
2023-02-23T07:27:10.818Z,80.80
2023-02-23T07:29:40.748Z,80.70
2023-02-23T07:32:09.415Z,80.80
2023-02-23T07:34:38.043Z,80.90
2023-02-23T07:37:06.160Z,81.00
2023-02-23T07:39:34.762Z,80.90
2023-02-23T07:42:02.905Z,81.20
2023-02-23T07:44:31.529Z,81.30
2023-02-23T07:47:01.078Z,81.30
2023-02-23T07:49:30.552Z,81.50
2023-02-23T07:51:59.152Z,81.40
2023-02-23T07:54:28.090Z,81.50
2023-02-23T07:56:56.404Z,81.70
2023-02-23T07:59:25.014Z,81.80
2023-02-23T08:01:53.147Z,81.70
2023-02-23T08:04:23.139Z,81.60
2023-02-23T08:06:51.764Z,81.60
2023-02-23T08:09:19.859Z,81.60
2023-02-23T08:11:48.438Z,81.70
2023-02-23T08:14:16.492Z,81.60
2023-02-23T08:16:45.082Z,81.60
2023-02-23T08:19:13.208Z,81.60
2023-02-23T08:21:43.404Z,81.60
2023-02-23T08:24:11.856Z,81.60
2023-02-23T08:26:40.016Z,81.60
2023-02-23T08:29:09.016Z,81.40
2023-02-23T08:31:37.552Z,81.60
2023-02-23T08:34:05.867Z,81.50
2023-02-23T08:36:34.106Z,81.50
2023-02-23T08:39:06.520Z,81.60
2023-02-23T08:41:34.980Z,81.80
2023-02-23T08:44:03.070Z,81.80
2023-02-23T08:46:31.322Z,81.80
2023-02-23T08:48:59.610Z,81.90
2023-02-23T08:51:28.565Z,82.00
2023-02-23T08:53:58.096Z,82.10
2023-02-23T08:56:28.434Z,82.10
2023-02-23T08:58:57.311Z,82.20
2023-02-23T09:01:25.946Z,82.20
2023-02-23T09:03:54.048Z,82.20
2023-02-23T09:06:26.251Z,82.30
2023-02-23T09:08:55.680Z,82.60
2023-02-23T09:11:24.059Z,82.60
2023-02-23T09:13:53.514Z,82.60
2023-02-23T09:16:22.098Z,82.50
2023-02-23T09:18:50.412Z,82.50
2023-02-23T09:21:25.694Z,82.70
2023-02-23T09:23:56.163Z,82.80
2023-02-23T09:26:26.790Z,82.70
2023-02-23T09:28:57.367Z,82.60
2023-02-23T09:31:25.891Z,82.90
2023-02-23T09:33:55.252Z,82.80
2023-02-23T09:36:26.270Z,82.70
2023-02-23T09:38:57.723Z,82.80
2023-02-23T09:41:59.694Z,83.10
2023-02-23T09:44:43.817Z,83.30
2023-02-23T09:47:30.166Z,83.10
2023-02-23T09:50:00.845Z,83.00
2023-02-23T09:52:38.789Z,83.10
2023-02-23T09:55:08.698Z,83.30
2023-02-23T09:57:39.999Z,83.50
2023-02-23T10:00:19.127Z,83.70
2023-02-23T10:03:04.478Z,83.80
2023-02-23T10:05:38.859Z,83.50
2023-02-23T10:08:09.943Z,83.40
2023-02-23T10:10:45.170Z,83.60
2023-02-23T10:13:23.358Z,83.70
2023-02-23T10:15:58.065Z,83.70
2023-02-23T10:18:46.021Z,83.90
2023-02-23T10:21:20.095Z,84.20
2023-02-23T10:23:55.839Z,84.30
2023-02-23T10:26:28.286Z,84.50
2023-02-23T10:28:59.932Z,84.30
2023-02-23T10:31:36.020Z,85.30
2023-02-23T10:34:11.574Z,84.50
2023-02-23T10:36:45.114Z,84.20
2023-02-23T10:39:15.442Z,83.90
2023-02-23T10:41:44.867Z,83.90
2023-02-23T10:44:19.557Z,84.00
2023-02-23T10:46:55.826Z,84.10
2023-02-23T10:49:30.344Z,83.90
2023-02-23T10:52:03.073Z,83.90
2023-02-23T10:54:48.005Z,83.60
2023-02-23T10:57:26.653Z,83.80
2023-02-23T11:00:17.140Z,83.60
2023-02-23T11:02:47.736Z,83.40
2023-02-23T11:05:32.308Z,83.10
2023-02-23T11:08:30.822Z,83.50
2023-02-23T11:11:19.813Z,83.30
2023-02-23T11:13:50.047Z,83.50
2023-02-23T11:16:20.511Z,83.10
2023-02-23T11:18:57.081Z,83.00
2023-02-23T11:21:29.550Z,83.10
2023-02-23T11:24:00.698Z,83.00
2023-02-23T11:26:40.346Z,83.00
2023-02-23T11:29:18.205Z,83.40
2023-02-23T11:31:53.095Z,83.70
2023-02-23T11:34:30.029Z,84.10
2023-02-23T11:37:04.982Z,84.40
2023-02-23T11:39:33.653Z,84.10
2023-02-23T11:42:19.922Z,83.80
2023-02-23T11:45:04.684Z,83.80
2023-02-23T11:47:35.289Z,83.60
2023-02-23T11:50:06.463Z,83.60
2023-02-23T11:52:36.922Z,83.60
2023-02-23T11:55:17.187Z,83.70
2023-02-23T11:57:46.811Z,83.60
2023-02-23T12:00:25.024Z,83.40
2023-02-23T12:02:57.130Z,83.20
2023-02-23T12:05:28.767Z,83.10
2023-02-23T12:08:05.745Z,83.10
2023-02-23T12:10:39.818Z,83.30
2023-02-23T12:13:21.878Z,83.40
2023-02-23T12:15:54.512Z,83.40
2023-02-23T12:18:39.506Z,83.20
2023-02-23T12:21:20.351Z,83.00
2023-02-23T12:23:52.788Z,83.40
2023-02-23T12:26:24.819Z,83.40
2023-02-23T12:29:00.020Z,83.60
2023-02-23T12:31:36.645Z,83.90
2023-02-23T12:34:13.311Z,83.60
2023-02-23T12:36:47.723Z,83.90
2023-02-23T12:39:22.916Z,84.30
2023-02-23T12:42:00.334Z,83.90
2023-02-23T12:44:42.695Z,83.40
2023-02-23T12:47:22.290Z,83.20
2023-02-23T12:49:55.149Z,83.10
2023-02-23T12:52:31.029Z,83.00
2023-02-23T12:54:59.650Z,82.90
2023-02-23T12:57:39.224Z,82.70
2023-02-23T13:00:48.069Z,82.60
2023-02-23T13:03:55.529Z,83.10
2023-02-23T13:06:30.691Z,82.80
2023-02-23T13:09:10.882Z,82.60
2023-02-23T13:11:56.309Z,82.80
2023-02-23T13:14:30.829Z,83.00
2023-02-23T13:17:04.388Z,83.00
2023-02-23T13:19:42.502Z,82.80
2023-02-23T13:22:27.033Z,82.80
2023-02-23T13:25:00.636Z,82.90
2023-02-23T13:27:35.327Z,82.70
2023-02-23T13:30:05.454Z,83.50
2023-02-23T13:32:36.860Z,82.60
2023-02-23T13:35:08.086Z,82.60
2023-02-23T13:37:43.758Z,82.60
2023-02-23T13:40:28.587Z,82.50
2023-02-23T13:43:08.657Z,82.40
2023-02-23T13:45:54.009Z,82.30
2023-02-23T13:48:33.296Z,82.20
2023-02-23T13:51:08.140Z,82.10
2023-02-23T13:53:41.989Z,82.00
2023-02-23T13:56:16.923Z,82.00
2023-02-23T13:58:48.886Z,82.00
2023-02-23T14:01:22.514Z,81.90
2023-02-23T14:03:56.095Z,82.10
2023-02-23T14:06:26.901Z,82.20
2023-02-23T14:09:00.837Z,82.60
2023-02-23T14:11:46.905Z,82.40
2023-02-23T14:14:37.499Z,82.40
2023-02-23T14:17:51.081Z,82.20
2023-02-23T14:20:44.196Z,82.10
2023-02-23T14:23:49.682Z,81.90
2023-02-23T14:26:47.349Z,81.90
2023-02-23T14:29:27.754Z,81.90
2023-02-23T14:31:59.667Z,81.70
2023-02-23T14:34:52.670Z,81.70
2023-02-23T14:37:27.208Z,81.50
2023-02-23T14:39:57.743Z,81.50
2023-02-23T14:42:30.709Z,81.40
2023-02-23T14:45:05.514Z,81.30
2023-02-23T14:47:43.737Z,81.30
2023-02-23T14:50:17.901Z,81.30
2023-02-23T14:52:46.676Z,81.30
2023-02-23T14:55:22.828Z,81.30
2023-02-23T14:57:54.292Z,81.30
2023-02-23T15:00:25.370Z,81.30
2023-02-23T15:03:03.684Z,81.10
2023-02-23T15:05:34.006Z,81.10
2023-02-23T15:08:05.151Z,81.00
2023-02-23T15:10:37.877Z,80.80
2023-02-23T15:13:13.129Z,80.80
2023-02-23T15:15:45.872Z,80.70
2023-02-23T15:19:08.935Z,80.70
2023-02-23T15:21:40.257Z,80.60
2023-02-23T15:24:12.832Z,80.60
2023-02-23T15:26:44.199Z,80.50
2023-02-23T15:29:18.370Z,80.50
2023-02-23T15:31:52.348Z,80.50
2023-02-23T15:34:22.539Z,80.50
2023-02-23T15:36:54.466Z,80.40
2023-02-23T15:39:36.035Z,80.20
2023-02-23T15:42:06.053Z,80.10
2023-02-23T15:44:44.107Z,80.20
2023-02-23T15:47:21.644Z,80.20
2023-02-23T15:49:50.324Z,80.20
2023-02-23T15:52:24.109Z,80.20
2023-02-23T15:55:00.784Z,80.10
2023-02-23T15:57:31.515Z,80.00
2023-02-23T16:00:07.824Z,80.00
2023-02-23T16:02:38.410Z,80.50
2023-02-23T16:05:22.002Z,79.60
2023-02-23T16:07:50.167Z,79.50
2023-02-23T16:10:23.611Z,79.40
2023-02-23T16:12:54.419Z,79.50
2023-02-23T16:15:27.227Z,79.50
2023-02-23T16:17:58.947Z,79.40
2023-02-23T16:20:36.876Z,79.50
2023-02-23T16:23:07.409Z,79.30
2023-02-23T16:25:36.154Z,79.30
2023-02-23T16:28:09.796Z,79.30
2023-02-23T16:30:44.521Z,79.30
2023-02-23T16:33:19.479Z,79.10
2023-02-23T16:35:50.752Z,78.60
2023-02-23T16:38:25.611Z,78.70
2023-02-23T16:40:54.404Z,78.70
2023-02-23T16:43:23.432Z,78.80
2023-02-23T16:45:53.093Z,78.80
2023-02-23T16:48:21.193Z,78.70
2023-02-23T16:50:51.157Z,78.60
2023-02-23T16:53:19.718Z,78.40
2023-02-23T16:55:52.389Z,78.40
2023-02-23T16:58:23.711Z,78.50
2023-02-23T17:00:54.173Z,78.60
2023-02-23T17:03:26.572Z,78.60
2023-02-23T17:05:56.745Z,78.60
2023-02-23T17:08:26.322Z,79.50
2023-02-23T17:10:55.914Z,78.40
2023-02-23T17:13:26.441Z,78.40
2023-02-23T17:15:58.436Z,79.40
2023-02-23T17:18:28.568Z,78.40
2023-02-23T17:20:58.987Z,78.40
2023-02-23T17:23:29.776Z,78.20
2023-02-23T17:25:58.995Z,78.30
2023-02-23T17:28:27.082Z,78.30
2023-02-23T17:30:57.029Z,78.20
2023-02-23T17:33:25.358Z,78.10
2023-02-23T17:35:53.947Z,78.00
2023-02-23T17:38:23.688Z,78.10
2023-02-23T17:40:53.090Z,78.20
2023-02-23T17:43:23.884Z,78.20
2023-02-23T17:45:55.165Z,78.30
2023-02-23T17:48:25.367Z,78.40
2023-02-23T17:50:59.538Z,78.40
2023-02-23T17:53:28.243Z,78.40
2023-02-23T17:55:56.992Z,78.50
2023-02-23T17:58:25.740Z,78.60
2023-02-23T18:00:57.482Z,78.60
2023-02-23T18:03:32.283Z,78.60
2023-02-23T18:06:04.396Z,78.60
2023-02-23T18:08:33.697Z,78.60
2023-02-23T18:11:02.679Z,78.70
2023-02-23T18:13:33.323Z,78.70
2023-02-23T18:16:03.478Z,78.90
2023-02-23T18:18:33.422Z,79.00
2023-02-23T18:21:03.292Z,79.10
2023-02-23T18:23:33.385Z,79.20
2023-02-23T18:26:09.004Z,79.10
2023-02-23T18:28:38.657Z,79.20
2023-02-23T18:31:07.587Z,79.30
2023-02-23T18:33:37.555Z,79.50
2023-02-23T18:36:17.073Z,79.50
2023-02-23T18:38:45.613Z,79.80
2023-02-23T18:41:14.015Z,79.70
2023-02-23T18:43:42.068Z,80.70
2023-02-23T18:46:14.902Z,79.90
2023-02-23T18:48:45.278Z,80.00
2023-02-23T18:51:15.130Z,80.00
2023-02-23T18:53:44.661Z,80.00
2023-02-23T18:56:15.831Z,80.10
2023-02-23T18:58:46.294Z,80.30
2023-02-23T19:01:18.906Z,80.40
2023-02-23T19:03:49.017Z,80.40
2023-02-23T19:06:18.179Z,80.40
2023-02-23T19:08:54.618Z,80.40
2023-02-23T19:11:26.728Z,80.40
2023-02-23T19:13:56.164Z,80.40
2023-02-23T19:16:25.953Z,80.30
2023-02-23T19:18:55.898Z,80.30
2023-02-23T19:21:24.050Z,80.30
2023-02-23T19:23:54.072Z,80.40
2023-02-23T19:26:22.830Z,80.30
2023-02-23T19:28:51.437Z,80.20
2023-02-23T19:31:23.517Z,80.30
2023-02-23T19:33:53.508Z,80.20
2023-02-23T19:36:26.902Z,80.20
2023-02-23T19:38:56.945Z,80.40
2023-02-23T19:41:25.725Z,80.30
2023-02-23T19:43:54.481Z,80.10
2023-02-23T19:46:26.017Z,80.20
2023-02-23T19:48:54.245Z,80.10
2023-02-23T19:51:24.574Z,81.10
2023-02-23T19:53:54.905Z,80.20
2023-02-23T19:56:25.332Z,80.20
2023-02-23T19:58:53.961Z,80.20
2023-02-23T20:01:23.749Z,80.20
2023-02-23T20:03:55.936Z,80.30
2023-02-23T20:06:27.966Z,80.40
2023-02-23T20:08:56.495Z,80.40
2023-02-23T20:11:25.060Z,80.40
2023-02-23T20:13:53.655Z,80.40
2023-02-23T20:16:22.065Z,80.30
2023-02-23T20:18:50.176Z,80.50
2023-02-23T20:21:20.925Z,80.50
2023-02-23T20:23:50.946Z,80.60
2023-02-23T20:26:22.345Z,80.40
2023-02-23T20:28:51.269Z,80.40
2023-02-23T20:31:23.087Z,80.50
2023-02-23T20:33:51.542Z,80.50
2023-02-23T20:36:20.855Z,80.60
2023-02-23T20:38:51.051Z,80.60
2023-02-23T20:41:20.882Z,80.70
2023-02-23T20:43:49.276Z,80.70
2023-02-23T20:46:20.260Z,80.60
2023-02-23T20:48:49.255Z,80.70
2023-02-23T20:51:19.445Z,80.80
2023-02-23T20:53:51.128Z,80.80
2023-02-23T20:56:22.185Z,80.80
2023-02-23T20:58:50.924Z,80.60
2023-02-23T21:01:22.980Z,80.50
2023-02-23T21:03:52.767Z,80.60
2023-02-23T21:06:22.313Z,80.60
2023-02-23T21:08:56.091Z,80.50
2023-02-23T21:11:26.662Z,80.60
2023-02-23T21:13:55.008Z,80.60
2023-02-23T21:16:24.310Z,80.50
2023-02-23T21:19:04.087Z,80.70
2023-02-23T21:21:33.331Z,80.80
2023-02-23T21:24:03.281Z,80.90
2023-02-23T21:26:31.694Z,80.90
2023-02-23T21:28:59.788Z,81.00
2023-02-23T21:31:28.539Z,80.90
2023-02-23T21:33:56.806Z,80.80
2023-02-23T21:36:25.528Z,81.00
2023-02-23T21:38:53.609Z,81.10
2023-02-23T21:41:26.170Z,81.30
2023-02-23T21:43:54.933Z,81.40
2023-02-23T21:46:23.887Z,81.50
2023-02-23T21:48:52.856Z,81.60
2023-02-23T21:51:21.324Z,81.70
2023-02-23T21:53:50.239Z,81.80
2023-02-23T21:56:24.101Z,81.80
2023-02-23T21:58:54.898Z,81.90
2023-02-23T22:01:26.012Z,81.80
2023-02-23T22:03:55.510Z,81.80
2023-02-23T22:06:27.263Z,81.80
2023-02-23T22:08:56.773Z,81.80
2023-02-23T22:11:27.153Z,81.80
2023-02-23T22:14:00.376Z,81.80
2023-02-23T22:16:30.050Z,81.90
2023-02-23T22:18:59.139Z,81.80
2023-02-23T22:21:27.850Z,81.80
2023-02-23T22:23:56.214Z,81.80
2023-02-23T22:26:24.815Z,81.80
2023-02-23T22:28:52.901Z,81.80
2023-02-23T22:31:23.563Z,81.80
2023-02-23T22:33:52.524Z,81.80
2023-02-23T22:36:21.147Z,81.80
2023-02-23T22:38:49.348Z,81.80
2023-02-23T22:41:18.108Z,81.90
2023-02-23T22:43:48.425Z,81.90
2023-02-23T22:46:17.855Z,81.80
2023-02-23T22:48:47.683Z,81.80
2023-02-23T22:51:18.109Z,82.00
2023-02-23T22:53:46.572Z,82.10
2023-02-23T22:56:15.525Z,82.00
2023-02-23T22:58:43.713Z,82.10
2023-02-23T23:01:13.532Z,82.20
2023-02-23T23:03:46.182Z,82.20
2023-02-23T23:06:22.070Z,82.20
2023-02-23T23:08:53.257Z,82.40
2023-02-23T23:11:23.586Z,82.40
2023-02-23T23:13:54.291Z,82.40
2023-02-23T23:16:31.627Z,82.50
2023-02-23T23:19:02.966Z,82.50
2023-02-23T23:21:34.252Z,82.50
2023-02-23T23:24:06.267Z,82.50
2023-02-23T23:26:35.590Z,82.50
2023-02-23T23:29:06.277Z,82.50
2023-02-23T23:31:36.424Z,82.70
2023-02-23T23:34:09.187Z,82.70
2023-02-23T23:36:43.639Z,82.80
2023-02-23T23:39:13.054Z,82.90
2023-02-23T23:41:43.550Z,82.90
2023-02-23T23:44:13.610Z,82.80
2023-02-23T23:46:44.809Z,82.90
2023-02-23T23:49:16.337Z,83.10
2023-02-23T23:51:49.305Z,83.10
2023-02-23T23:54:20.053Z,83.10
2023-02-23T23:56:48.862Z,83.10
2023-02-23T23:59:20.777Z,83.10
